Hauptseite
METAR-TAF:

METAR-TAF

Flughäfen :

Oslo, Norwegen

Flughafen Oslo-Gardermoen

Breite: 60-12N, Länge: 011-05E, Höhe: 208 m

Beobachtung

Neuester Wetterbericht von vor 24 Minuten, um 04:50 UTC
Wind 3 kt aus Süd
Temperatur 2°C
Luftfeuchtigkeit 75%
Luftdruck 1020 hPa
Sichtweite 10 km oder mehr
keine Wolken unter 1500 m und keine Kumulonimbus oder Gewitterwolken

METAR: ENGM 260450Z 19003KT CAVOK 02/M02 Q1020 NOSIG

Zeit: 07:14 (05:14 UTC)

Prognose

Gültige Prognose vom 26 um 00 UTC bis 26 um 24 UTC
Wind 5 kt aus West/Südwest
Sichtweite 10 km oder mehr
keine Wolken unter 1500 m und keine Kumulonimbus oder Gewitterwolken
Zeitweise
vom 26 um 12 UTC bis 26 um 19 UTC
Wind 10 kt aus Nord/Nordwest, Böen bis zu 20 kt

TAF: ENGM 2600/2624 24005KT CAVOK TEMPO 2612/2619 33010G20KT

Wetterbeobachtungen und Prognosen von mehr als 4000 Flughäfen (METAR und TAF Bericht).

Die verfügbaren Stationen werden durch gelbe und rote Markierungen auf der Karte dargestellt.

Führen Sie die Maus auf sie, um den Namen der Station zu sehen.

Darauf klicken, um die Beobachtung von Wetterbeobachtungen und Prognosen zu sehen.

Um die Karte zu ändern : klicken Sie auf den grünen Tasten mit einem schwarzen Kreuz Zum Vergrößern, auf den grünen Button mit einem Gedankenstrich zu verkleinern, oder auf die grünen Pfeile für benachbarte Karten.


METAR-TAF: